Latest Weather Observations for Rolleston Airport

IDQ60801

Issued at 7:05 pm EST Friday 24 October 2014 (issued every 30 minutes, with the page automatically refreshed every 10 minutes)

About weather observations | Map of weather stations | Latest weather observations for QLD | Other Formats
Station Details ID: 035129 Name: ROLLESTON AIRPORT Lat: -24.46 Lon: 148.63 Height: 219.45 m
Data from the previous 72 hours. | See also: Recent months at Rolleston Airport
Date/Time
EST
Temp
°C
App
Temp
°C
Dew
Point
Rel
Hum
%
Delta-T
°C
Wind Press
QNH
hPa
Press
MSL
hPa
Rain
since 9 am
mm
Dir
 
Spd
km/h
Gust
km/h
Spd
kts
Gust
kts
24/07:00pm 28.8 26.6 7.9 27 11.4 NE 9 13 5 7 1017.9 1016.9 0.0
24/06:30pm 29.7 27.4 7.6 25 12.1 ENE 9 13 5 7 1017.6 1016.6 0.0
24/06:00pm 30.9 27.8 7.4 23 12.9 ENE 13 19 7 10 1017.3 1016.3 0.0
24/05:30pm 32.1 28.9 7.0 21 13.8 ENE 13 20 7 11 1017.1 1016.0 0.0
24/05:00pm 32.6 29.0 6.7 20 14.2 E 15 20 8 11 1016.8 1015.7 0.0
24/04:30pm 33.0 29.7 6.3 19 14.6 ENE 13 24 7 13 1016.5 1015.5 0.0
24/04:00pm 32.9 30.9 7.0 20 14.3 E 7 15 4 8 1016.5 1015.5 0.0
24/03:30pm 33.0 31.0 6.3 19 14.6 NNE 6 11 3 6 1016.5 1015.5 0.0
24/03:00pm 33.2 31.6 6.5 19 14.6 E 4 13 2 7 1016.9 1015.8 0.0
24/02:30pm 32.6 30.1 6.7 20 14.2 ESE 9 17 5 9 1017.2 1016.1 0.0
24/02:00pm 32.6 30.0 9.4 24 13.2 ESE 13 22 7 12 1017.7 1016.7 0.0
24/01:30pm 32.4 30.9 9.2 24 13.2 NNE 7 13 4 7 1018.2 1017.2 0.0
24/01:00pm 31.2 29.4 9.4 26 12.4 W 9 15 5 8 1018.9 1017.9 0.0
24/12:30pm 31.4 31.1 10.2 27 12.2 NNE 2 7 1 4 1019.7 1018.7 0.0
24/12:00pm 29.5 28.3 9.6 29 11.2 NNE 6 11 3 6 1020.1 1019.1 0.0
24/11:30am 29.1 28.1 10.3 31 10.7 N 6 13 3 7 1020.4 1019.4 0.0
24/11:00am 28.4 27.1 10.1 32 10.4 NNE 7 15 4 8 1020.9 1019.9 0.0
24/10:30am 27.4 26.2 10.2 34 9.7 N 7 15 4 8 1021.7 1020.7 0.0
24/10:00am 27.0 26.3 11.5 38 8.9 N 6 15 3 8 1021.9 1020.9 0.0
24/09:30am 25.6 25.3 11.4 41 8.1 ENE 4 11 2 6 1022.1 1021.1 0.0
24/09:00am 24.1 23.6 12.1 47 6.9 W 6 9 3 5 1022.4 1021.4 0.0
24/08:30am 23.2 22.8 12.5 51 6.2 WNW 6 13 3 7 1022.5 1021.5 0.0
24/08:00am 21.5 21.0 12.1 55 5.3 W 6 11 3 6 1022.4 1021.4 0.0
24/07:30am 20.5 19.8 11.4 56 5.1 WSW 6 7 3 4 1022.2 1021.2 0.0
24/07:00am 19.0 18.8 8.9 52 5.3 CALM 0 0 0 0 1021.9 1020.9 0.0
24/06:30am 17.2 17.0 8.9 58 4.3 CALM 0 0 0 0 1021.7 1020.7 0.0
24/06:00am 15.5 15.2 8.7 64 3.5 CALM 0 0 0 0 1021.3 1020.4 0.0
24/05:30am 15.3 14.4 9.2 67 3.2 E 4 6 2 3 1020.9 1019.9 0.0
24/05:00am 15.5 15.2 8.7 64 3.5 CALM 0 0 0 0 1020.7 1019.7 0.0
24/04:30am 14.9 13.2 8.2 64 3.4 ESE 7 9 4 5 1020.6 1019.6 0.0
24/04:00am 15.0 13.1 6.8 58 4.0 SSE 6 7 3 4 1020.3 1019.3 0.0
24/03:30am 14.4 12.4 6.3 58 3.9 SSE 6 7 3 4 1020.2 1019.2 0.0
24/03:00am 15.2 13.5 6.0 54 4.5 S 4 6 2 3 1020.1 1019.1 0.0
24/02:30am 15.3 13.5 7.1 58 4.1 SE 6 6 3 3 1020.1 1019.1 0.0
24/02:00am 16.1 14.6 6.8 54 4.6 SE 4 6 2 3 1020.1 1019.1 0.0
24/01:30am 17.0 15.6 7.1 52 5.0 SSE 4 6 2 3 1020.2 1019.2 0.0
24/01:00am 16.9 15.6 7.5 54 4.8 S 4 4 2 2 1020.3 1019.3 0.0
24/12:30am 17.0 15.4 6.2 49 5.3 SSW 4 7 2 4 1020.5 1019.5 0.0
24/12:00am 16.7 16.0 6.8 52 4.9 SSW 0 0 0 0 1020.3 1019.3 0.0
 
Date/Time
EST
Temp
°C
App
Temp
°C
Dew
Point
Rel
Hum
%
Delta-T
°C
Wind Press
QNH
hPa
Press
MSL
hPa
Rain
since 9 am
mm
Dir
 
Spd
km/h
Gust
km/h
Spd
kts
Gust
kts
23/11:30pm 20.3 18.3 7.0 42 6.8 NNE 7 9 4 5 1020.0 1019.0 0.0
23/11:00pm 20.9 19.0 6.8 40 7.2 N 6 9 3 5 1020.0 1019.0 0.0
23/10:30pm 20.3 19.8 7.7 44 6.6 CALM 0 6 0 3 1019.9 1018.9 0.0
23/10:00pm 21.0 19.7 6.2 38 7.5 NNW 2 4 1 2 1019.4 1018.4 0.0
23/09:30pm 21.9 20.3 6.2 36 8.0 N 4 4 2 2 1019.1 1018.1 0.0
23/09:00pm 23.1 21.0 6.0 33 8.8 NNE 6 7 3 4 1019.0 1018.0 0.0
23/08:30pm 23.9 21.8 5.8 31 9.3 NNE 6 7 3 4 1018.6 1017.6 0.0
23/08:00pm 24.8 23.1 6.1 30 9.7 NE 4 6 2 3 1018.3 1017.3 0.0
23/07:30pm 25.9 23.8 6.0 28 10.4 NE 6 7 3 4 1017.9 1016.9 0.0
23/07:00pm 26.6 24.4 6.1 27 10.7 NE 7 9 4 5 1017.6 1016.6 0.0
23/06:30pm 27.9 25.3 6.1 25 11.5 ENE 9 11 5 6 1017.2 1016.1 0.0
23/06:00pm 29.2 25.8 6.0 23 12.3 E 13 20 7 11 1017.0 1015.9 0.0
23/05:30pm 30.2 26.7 5.5 21 13.1 E 13 19 7 10 1016.7 1015.6 0.0
23/05:00pm 30.6 27.6 5.8 21 13.2 ENE 11 17 6 9 1016.5 1015.5 0.0
23/04:30pm 31.1 27.4 6.2 21 13.4 E 15 24 8 13 1016.3 1015.3 0.0
23/04:00pm 31.4 28.0 5.8 20 13.7 SE 13 30 7 16 1016.3 1015.3 0.0
23/03:30pm 31.0 27.0 4.7 19 13.8 E 15 24 8 13 1016.5 1015.5 0.0
23/03:00pm 31.7 27.1 3.7 17 14.5 ESE 17 26 9 14 1016.7 1015.6 0.0
23/02:30pm 30.8 27.8 7.9 24 12.7 ENE 13 20 7 11 1017.0 1015.9 0.0
23/02:00pm 30.7 28.0 9.0 26 12.2 ESE 13 26 7 14 1017.5 1016.5 0.0
23/01:30pm 29.3 27.6 8.4 27 11.6 SE 7 15 4 8 1018.0 1017.0 0.0
23/01:00pm 29.7 27.2 8.2 26 11.9 S 11 24 6 13 1018.8 1017.8 0.0
23/12:30pm 28.8 27.4 9.5 30 10.9 E 7 15 4 8 1019.4 1018.4 0.0
23/12:00pm 27.7 25.8 10.4 34 9.8 SSE 11 17 6 9 1020.0 1019.0 0.0
23/11:30am 27.3 26.4 11.3 37 9.2 WSW 7 13 4 7 1020.5 1019.5 0.0
23/11:00am 26.8 26.2 11.7 39 8.7 W 6 9 3 5 1021.0 1020.0 0.0
23/10:30am 25.7 25.9 12.9 45 7.5 NE 4 13 2 7 1021.5 1020.5 0.0
23/10:00am 24.2 23.7 12.2 47 6.9 W 6 11 3 6 1021.8 1020.8 0.0
23/09:30am 23.2 22.7 12.2 50 6.3 SSE 6 11 3 6 1022.2 1021.2 0.0
23/09:00am 22.2 21.7 12.2 53 5.7 SSW 6 15 3 8 1022.6 1021.6 0.0
23/08:30am 22.0 21.6 12.5 54 5.4 S 6 13 3 7 1022.7 1021.7 0.0
23/08:00am 20.5 20.0 12.0 58 4.8 SE 6 11 3 6 1022.9 1021.9 0.0
23/07:30am 19.8 20.1 12.3 62 4.2 SW 2 6 1 3 1022.8 1021.8 0.0
23/07:00am 18.5 17.7 11.1 62 4.0 SSE 6 7 3 4 1022.9 1021.9 0.0
23/06:30am 16.6 15.8 11.1 70 3.0 SSE 6 7 3 4 1022.7 1021.7 0.0
23/06:00am 14.8 13.9 10.8 77 2.1 SSE 6 7 3 4 1022.3 1021.3 0.0
23/05:30am 14.0 13.1 10.6 80 1.8 SSE 6 7 3 4 1022.0 1021.0 0.0
23/05:00am 14.0 12.9 10.0 77 2.1 SSE 6 6 3 3 1021.9 1020.9 0.0
23/04:30am 13.7 12.8 9.4 75 2.2 SSW 4 6 2 3 1021.7 1020.7 0.0
23/04:00am 14.9 14.3 10.5 75 2.3 SW 4 7 2 4 1021.3 1020.4 0.0
23/03:30am 14.9 14.2 9.9 72 2.6 SSW 4 6 2 3 1021.1 1020.1 0.0
23/03:00am 15.4 15.6 10.4 72 2.7 CALM 0 0 0 0 1021.0 1020.0 0.0
23/02:30am 17.3 17.0 11.6 69 3.1 NNE 4 4 2 2 1021.1 1020.1 0.0
23/02:00am 17.7 17.4 11.5 67 3.4 NNE 4 6 2 3 1021.0 1020.0 0.0
23/01:30am 18.5 17.8 12.0 66 3.6 NE 7 9 4 5 1021.0 1020.0 0.0
23/01:00am 18.7 17.8 11.5 63 4.0 NE 7 9 4 5 1021.1 1020.1 0.0
23/12:30am 17.8 17.0 9.7 59 4.3 N 4 4 2 2 1021.2 1020.3 0.0
23/12:00am 19.4 18.2 9.6 53 5.2 N 6 7 3 4 1021.0 1020.0 0.0
 
Date/Time
EST
Temp
°C
App
Temp
°C
Dew
Point
Rel
Hum
%
Delta-T
°C
Wind Press
QNH
hPa
Press
MSL
hPa
Rain
since 9 am
mm
Dir
 
Spd
km/h
Gust
km/h
Spd
kts
Gust
kts
22/11:30pm 18.4 17.4 8.7 53 5.1 W 4 6 2 3 1021.1 1020.1 0.0
22/11:00pm 19.8 18.7 8.5 48 5.9 E 4 6 2 3 1021.0 1020.0 0.0
22/10:30pm 20.9 19.8 8.5 45 6.6 E 4 6 2 3 1020.9 1019.9 0.0
22/10:00pm 21.6 20.4 9.5 46 6.5 E 6 7 3 4 1020.6 1019.6 0.0
22/09:30pm 22.3 20.9 9.5 44 7.0 E 7 9 4 5 1020.4 1019.4 0.0
22/09:00pm 22.7 21.3 9.5 43 7.2 E 7 9 4 5 1020.3 1019.3 0.0
22/08:30pm 23.3 21.4 9.0 40 7.8 ENE 9 9 5 5 1020.0 1019.0 0.0
22/08:00pm 23.8 22.2 8.6 38 8.2 ENE 7 9 4 5 1019.7 1018.7 0.0
22/07:30pm 24.8 23.1 8.3 35 8.9 ENE 7 9 4 5 1019.5 1018.5 0.0
22/07:00pm 26.0 24.3 8.5 33 9.5 ENE 7 9 4 5 1019.2 1018.2 0.0
22/06:30pm 27.1 24.7 8.5 31 10.2 E 11 15 6 8 1018.9 1017.9 0.0
22/06:00pm 28.4 26.0 8.7 29 10.9 E 11 17 6 9 1018.6 1017.6 0.0
22/05:30pm 29.2 26.5 8.8 28 11.4 E 13 19 7 10 1018.4 1017.4 0.0
22/05:00pm 29.8 27.4 8.8 27 11.7 ESE 11 19 6 10 1018.4 1017.4 0.0
22/04:30pm 29.9 27.7 9.4 28 11.6 ESE 11 20 6 11 1018.5 1017.5 0.0
22/04:00pm 29.9 27.5 9.9 29 11.4 SE 13 24 7 13 1018.6 1017.6 0.0
22/03:30pm 30.1 28.5 10.1 29 11.4 SSW 9 13 5 7 1018.8 1017.8 0.0
22/03:00pm 29.6 27.0 10.7 31 10.9 SE 15 24 8 13 1019.1 1018.1 0.0
22/02:30pm 29.7 27.7 10.3 30 11.1 ESE 11 20 6 11 1019.4 1018.4 0.0
22/02:00pm 28.8 27.0 10.9 33 10.3 ESE 11 20 6 11 1019.8 1018.8 0.0
22/01:30pm 28.9 26.9 11.5 34 10.1 ESE 13 20 7 11 1020.3 1019.3 0.0
22/01:00pm 27.9 26.1 11.0 35 9.7 E 11 24 6 13 1020.8 1019.8 0.0
22/12:30pm 27.2 26.0 11.7 38 9.0 E 9 20 5 11 1021.3 1020.4 0.0
22/12:00pm 27.2 26.6 12.4 40 8.6 E 7 17 4 9 1022.1 1021.1 0.0
22/11:30am 26.2 25.5 11.9 41 8.3 S 7 19 4 10 1022.6 1021.6 0.0
22/11:00am 26.0 25.7 13.2 45 7.5 E 7 19 4 10 1023.1 1022.1 0.0
22/10:30am 25.0 24.1 12.6 46 7.2 E 9 17 5 9 1023.6 1022.6 0.0
22/10:00am 24.8 24.0 13.0 47 6.9 SE 9 17 5 9 1024.1 1023.1 0.0
22/09:30am 23.4 22.5 12.7 51 6.2 E 9 20 5 11 1024.5 1023.5 0.0
22/09:00am 22.4 22.0 12.9 55 5.5 E 7 13 4 7 1024.7 1023.7 0.0
22/08:30am 22.4 21.7 13.2 56 5.3 E 9 19 5 10 1024.7 1023.7 0.0
22/08:00am 21.1 20.8 12.8 59 4.7 S 6 11 3 6 1024.6 1023.6 0.0
22/07:30am 18.4 17.0 11.0 62 4.1 SSE 9 11 5 6 1024.6 1023.6 0.0
22/07:00am 16.9 16.3 10.5 66 3.4 S 4 6 2 3 1024.4 1023.4 0.0
22/06:30am 16.0 16.1 10.1 68 3.1 CALM 0 2 0 1 1024.2 1023.2 0.0
22/06:00am 15.0 14.3 8.5 65 3.3 S 2 2 1 1 1023.9 1022.9 0.0
22/05:30am 15.1 14.5 8.8 66 3.2 SSW 2 4 1 2 1023.6 1022.6 0.0
22/05:00am 14.3 14.2 9.3 72 2.6 CALM 0 0 0 0 1023.5 1022.5 0.0
22/04:30am 14.3 13.3 8.7 69 2.9 S 4 6 2 3 1023.2 1022.2 0.0
22/04:00am 14.3 12.9 8.9 70 2.8 S 6 6 3 3 1023.2 1022.2 0.0
22/03:30am 14.7 14.5 8.9 68 3.0 CALM 0 0 0 0 1023.0 1022.0 0.0
22/03:00am 15.9 15.7 9.1 64 3.5 CALM 0 0 0 0 1022.9 1021.9 0.0
22/02:30am 16.5 16.5 9.7 64 3.6 CALM 0 0 0 0 1023.2 1022.2 0.0
22/02:00am 16.7 16.3 9.6 63 3.7 SSW 2 6 1 3 1023.3 1022.3 0.0
22/01:30am 16.8 15.4 8.8 59 4.2 SW 6 6 3 3 1023.6 1022.6 0.0
22/01:00am 16.8 16.0 8.0 56 4.5 SW 2 4 1 2 1023.8 1022.8 0.0
22/12:30am 17.5 16.8 8.4 55 4.7 WSW 2 4 1 2 1023.9 1022.9 0.0
22/12:00am 17.8 17.1 8.4 54 4.9 WSW 2 4 1 2 1024.2 1023.2 0.0
 
Date/Time
EST
Temp
°C
App
Temp
°C
Dew
Point
Rel
Hum
%
Delta-T
°C
Wind Press
QNH
hPa
Press
MSL
hPa
Rain
since 9 am
mm
Dir
 
Spd
km/h
Gust
km/h
Spd
kts
Gust
kts
21/11:30pm 19.4 19.0 9.9 54 5.1 NW 2 2 1 1 1024.3 1023.3 0.0
21/11:00pm 20.6 19.5 9.8 50 5.8 NNE 6 7 3 4 1024.3 1023.3 0.0
21/10:30pm 21.2 19.6 8.8 45 6.6 ENE 7 11 4 6 1024.3 1023.3 0.0
21/10:00pm 22.0 19.6 8.5 42 7.2 NE 11 17 6 9 1023.9 1022.9 0.0
21/09:30pm 22.2 19.6 6.0 35 8.3 NE 9 15 5 8 1023.4 1022.4 0.0
21/09:00pm 22.3 20.3 6.1 35 8.3 NE 6 7 3 4 1022.8 1021.8 0.0
21/08:30pm 24.2 21.6 6.0 31 9.4 NE 9 9 5 5 1022.4 1021.4 0.0
21/08:00pm 24.4 22.3 6.6 32 9.3 NE 7 9 4 5 1022.1 1021.1 0.0
21/07:30pm 25.1 23.0 6.8 31 9.6 NE 7 9 4 5 1021.9 1020.9 0.0

Other Formats:

Comma delimited format used in spreadsheet applications
http://www.bom.gov.au/fwo/IDQ60801/IDQ60801.94396.axf

JavaScript Object Notation format (JSON) in row-major order
http://www.bom.gov.au/fwo/IDQ60801/IDQ60801.94396.json